Flight Track Log - Related Links

Times and Time Zones

All times are in EDT time to prevent confusion due to time zone crossing. See the UAL258 flight status page for this flight to view local times or setup timezone preferences in your user account.

Time Position Orientation Groundspeed Altitude Reporting Facility
EDT Latitude Longitude Course Direction KTS MPH feet Rate Location/Type
Wed 01:43:21 PM 36.0761 -115.1683 270° West 198 228 2,900  Level Los Angeles Center
Wed 01:44:34 PM 36.0700 -115.2500 265° West 226 260 4,700 1,698 Climbing Los Angeles Center
Wed 01:45:07 PM 36.0442 -115.2672 208° Southwest 224 258 5,900 2,361 Climbing Los Angeles Center
Wed 01:45:35 PM 36.0089 -115.2861 203° Southwest 261 300 7,100 2,419 Climbing Los Angeles Center
Wed 01:46:00 PM 35.8834 -115.4930 270° West  Level FlightAware Approximate
Wed 01:46:09 PM 35.9731 -115.3006 198° South 262 302 8,400  Level Los Angeles Center
Wed 01:47:00 PM 35.8833 -115.6245 270° West  Level FlightAware Approximate
Wed 01:47:11 PM 35.9139 -115.3700 224° Southwest 284 327 11,100  Level Los Angeles Center
Wed 01:48:00 PM 35.8834 -115.7561 270° West  Level FlightAware Approximate
Wed 01:48:14 PM 35.8872 -115.4592 250° West 293 337 13,800  Level Los Angeles Center
Wed 01:49:16 PM 35.8889 -115.5833 271° West 329 379 15,200 1,887 Climbing Los Angeles Center
Wed 01:50:18 PM 35.8911 -115.7150 271° West 358 412 17,700 2,226 Climbing Los Angeles Center
Wed 01:51:20 PM 35.8931 -115.8414 271° West 369 425 19,800 2,032 Climbing Los Angeles Center
Wed 01:52:22 PM 35.9056 -115.9772 277° West 370 426 21,900 1,694 Climbing Los Angeles Center
Wed 01:53:24 PM 35.9833 -116.0708 316° Northwest 390 449 23,300 1,306 Climbing Los Angeles Center
Wed 01:54:26 PM 36.0667 -116.1650 318° Northwest 400 460 24,600 1,355 Climbing Los Angeles Center
Wed 01:55:28 PM 36.1581 -116.2706 317° Northwest 413 475 26,100 1,235 Climbing Los Angeles Center
Wed 01:56:42 PM 36.2444 -116.3714 317° Northwest 425 489 27,400 1,270 Climbing Los Angeles Center
Wed 01:57:45 PM 36.3497 -116.4939 317° Northwest 434 499 29,000 1,536 Climbing Los Angeles Center
Wed 01:58:47 PM 36.4372 -116.5947 317° Northwest 432 497 30,600 1,452 Climbing Los Angeles Center
Wed 01:59:49 PM 36.5350 -116.7108 316° Northwest 428 493 32,000 677 Climbing Los Angeles Center
Wed 02:00:51 PM 36.6322 -116.7978 324° Northwest 430 495 32,000  Level Los Angeles Center
Wed 02:01:53 PM 36.7397 -116.8803 328° Northwest 432 497 32,000  Level Los Angeles Center
Wed 02:02:55 PM 36.8175 -116.9381 329° Northwest 432 497 32,000  Level Los Angeles Center
Wed 02:03:35 PM 36.9183 -117.0194 327° Northwest 431 496 32,000  Level Oakland Center
Wed 02:04:36 PM 37.0211 -117.0969 329° Northwest 430 495 32,000  Level Oakland Center
Wed 02:05:37 PM 37.1228 -117.1744 329° Northwest 429 494 32,000  Level Oakland Center
Wed 02:06:39 PM 37.2244 -117.2542 328° Northwest 430 495 32,000  Level Oakland Center
Wed 02:07:40 PM 37.3125 -117.3489 319° Northwest 417 480 32,000  Level Oakland Center
Wed 02:08:42 PM 37.3400 -117.4894 284° West 422 486 32,000  Level Oakland Center
Wed 02:09:43 PM 37.3544 -117.6375 277° West 424 488 32,000  Level Oakland Center
Wed 02:10:44 PM 37.3692 -117.7828 277° West 420 483 32,000  Level Oakland Center
Wed 02:11:46 PM 37.3822 -117.9294 276° West 420 483 32,000  Level Oakland Center
Wed 02:12:47 PM 37.3958 -118.0736 277° West 418 481 32,000  Level Oakland Center
Wed 02:13:48 PM 37.4089 -118.2189 276° West 418 481 32,000  Level Oakland Center
Wed 02:14:50 PM 37.4253 -118.3917 277° West 414 476 32,000  Level Oakland Center
Wed 02:15:51 PM 37.4375 -118.5350 276° West 412 474 32,000  Level Oakland Center
Wed 02:16:52 PM 37.4506 -118.6775 277° West 411 473 32,000  Level Oakland Center
Wed 02:17:53 PM 37.4617 -118.8139 276° West 416 479 32,000  Level Oakland Center
Wed 02:18:55 PM 37.4761 -118.9600 277° West 417 480 32,000 -49 Level Oakland Center
Wed 02:19:56 PM 37.4861 -119.0997 275° West 407 468 31,900  Descending Oakland Center
Wed 02:20:57 PM 37.4978 -119.2422 276° West 406 467 32,000  Climbing Oakland Center
Wed 02:21:59 PM 37.5117 -119.4142 276° West 413 475 31,900  Descending Oakland Center
Wed 02:23:00 PM 37.5233 -119.5564 276° West 413 475 32,000 49 Climbing Oakland Center
Wed 02:24:01 PM 37.5339 -119.7031 275° West 418 481 32,000  Level Oakland Center
Wed 02:25:03 PM 37.5456 -119.8458 276° West 411 473 32,000  Level Oakland Center
Wed 02:26:04 PM 37.5556 -119.9869 275° West 405 466 32,000 -295 Level Oakland Center
Wed 02:27:05 PM 37.5664 -120.1286 276° West 404 465 31,400 -780 Descending Oakland Center
Wed 02:28:07 PM 37.5781 -120.2711 276° West 408 470 30,400 -1,385 Descending Oakland Center
Wed 02:29:02 PM 37.5833 -120.4167 273° West 413 475 28,700 -2,035 Descending Northern Cal TRACON
Wed 02:30:02 PM 37.6000 -120.5667 278° West 406 467 26,500 -2,100 Descending Northern Cal TRACON
Wed 02:31:02 PM 37.6167 -120.7000 279° West 396 456 24,500 -2,000 Descending Northern Cal TRACON
Wed 02:32:02 PM 37.6167 -120.8333 270° West 386 444 22,500 -2,050 Descending Northern Cal TRACON
Wed 02:33:02 PM 37.6333 -120.9667 279° West 375 432 20,400 -2,000 Descending Northern Cal TRACON
Wed 02:34:02 PM 37.6167 -121.0833 260° West 365 420 18,500 -1,884 Descending Northern Cal TRACON
Wed 02:35:03 PM 37.6000 -121.2167 261° West 342 394 16,600 -1,714 Descending Northern Cal TRACON
Wed 02:36:08 PM 37.5833 -121.3333 260° West 329 379 14,900 -1,500 Descending Northern Cal TRACON
Wed 02:37:03 PM 37.5667 -121.4333 258° West 324 373 13,600 -1,400 Descending Northern Cal TRACON
Wed 02:38:08 PM 37.5333 -121.5500 250° West 317 365 12,100 -1,248 Descending Northern Cal TRACON
Wed 02:39:08 PM 37.5167 -121.6667 260° West 313 360 11,000 -1,252 Descending Northern Cal TRACON
Wed 02:40:03 PM 37.5000 -121.7500 256° West 274 315 9,700 -1,300 Descending Northern Cal TRACON
Wed 02:41:08 PM 37.4833 -121.8500 258° West 279 321 8,400 -1,143 Descending Northern Cal TRACON
Wed 02:42:09 PM 37.5000 -121.9333 284° West 254 292 7,300 -1,150 Descending Northern Cal TRACON
Wed 02:43:08 PM 37.5167 -122.0167 284° West 226 260 6,100 -1,000 Descending Northern Cal TRACON
Wed 02:44:09 PM 37.5333 -122.0833 288° West 185 213 5,300 -942 Descending Northern Cal TRACON
Wed 02:45:09 PM 37.5500 -122.1333 293° West 182 209 4,200 -1,050 Descending Northern Cal TRACON
Wed 02:45:29 PM 37.5550 -122.1572 285° West 200 230 3,900 -444 Descending Oakland Center
Wed 02:46:30 PM 37.5708 -122.2117 290° West 195 224 3,600 -900 Descending Oakland Center
Wed 02:48:09 PM 37.5833 -122.2833 282° West 132 152 1,500 -1,132 Descending Northern Cal TRACON
Wed 02:49:09 PM 37.6000 -122.3333 293° West 128 147 600 -900 Descending Northern Cal TRACON

Login

Don't have an account? Register now (free) for customized features, flight alerts, and more!